Time;durP1;ratioP1;P1;durP2;ratioP2;P2;SDS_P1;SDS_P2;PMS_P1;PMS_P2;Temp;Humidity;BMP_temperature;BMP_pressure;BME280_temperature;BME280_humidity;BME280_pressure;Samples;Min_cycle;Max_cycle;Signal;HPM_P1;HPM_P2
2022/03/19 00:00:25;;;;;;;7.30;5.35;;;;;;;0.91;54.75;96863.56;5036574;28;20208;-80
2022/03/19 00:02:52;;;;;;;7.75;6.03;;;;;;;0.92;54.75;96864.41;5055412;28;20573;-80
2022/03/19 00:05:19;;;;;;;6.82;5.18;;;;;;;0.88;55.18;96862.75;5055100;28;20211;-79
2022/03/19 00:07:48;;;;;;;9.75;5.85;;;;;;;0.82;55.46;96863.69;5055767;28;20612;-79
2022/03/19 00:10:16;;;;;;;6.60;5.93;;;;;;;0.80;55.24;96854.25;5055708;28;20191;-79
2022/03/19 00:19:27;;;;;;;17.48;7.10;;;;;;;0.71;56.78;96859.56;5054447;28;20244;-80
2022/03/19 00:21:54;;;;;;;7.00;6.32;;;;;;;0.75;56.50;96863.81;5055790;28;20211;-80
2022/03/19 00:24:22;;;;;;;8.70;5.90;;;;;;;0.79;57.51;96857.72;5020735;28;20308;-79
2022/03/19 00:26:49;;;;;;;6.47;5.25;;;;;;;0.76;57.35;96853.44;5055116;28;20222;-80
2022/03/19 00:29:16;;;;;;;10.68;6.75;;;;;;;0.75;57.66;96856.06;5055109;28;20192;-79
2022/03/19 00:31:43;;;;;;;7.40;6.20;;;;;;;0.73;58.09;96855.22;5055688;28;20190;-79
2022/03/19 00:34:10;;;;;;;11.98;7.15;;;;;;;0.69;57.85;96853.56;5054665;28;20284;-80
2022/03/19 00:36:56;;;;;;;15.00;7.28;;;;;;;0.66;57.81;96851.88;5054994;28;20550;-80
2022/03/19 00:39:24;;;;;;;9.75;7.20;;;;;;;0.64;58.07;96855.38;5055186;28;20241;-79
2022/03/19 00:41:52;;;;;;;13.00;6.90;;;;;;;0.58;58.41;96854.59;5055394;28;20211;-80
2022/03/19 00:44:21;;;;;;;9.75;6.32;;;;;;;0.58;58.34;96849.41;5055514;28;20191;-80
2022/03/19 00:46:48;;;;;;;11.77;6.50;;;;;;;0.52;58.67;96853.78;5054405;28;20588;-80
2022/03/19 00:49:15;;;;;;;13.98;7.50;;;;;;;0.47;59.08;96856.44;5054565;28;20220;-79
2022/03/19 00:51:42;;;;;;;7.60;6.60;;;;;;;0.47;58.46;96851.28;5055274;28;20205;-80
2022/03/19 00:54:11;;;;;;;12.07;6.68;;;;;;;0.50;59.06;96858.13;5054649;28;20200;-79
2022/03/19 01:03:23;;;;;;;13.55;6.57;;;;;;;0.38;59.50;96856.56;5053751;28;20227;-80
2022/03/19 01:05:50;;;;;;;10.85;6.90;;;;;;;0.31;59.08;96857.53;5053996;28;20693;-79
2022/03/19 01:08:17;;;;;;;11.18;6.97;;;;;;;0.24;59.31;96864.47;5054166;28;20198;-80
2022/03/19 01:10:44;;;;;;;12.55;7.40;;;;;;;0.12;59.54;96861.22;5018695;28;20202;-80
2022/03/19 01:13:11;;;;;;;9.95;7.05;;;;;;;0.11;60.39;96857.78;5053556;28;20202;-80
2022/03/19 01:15:38;;;;;;;10.60;7.75;;;;;;;0.14;60.79;96857.75;5054062;28;20215;-80
2022/03/19 01:18:05;;;;;;;8.45;7.05;;;;;;;0.14;61.31;96870.66;5054490;28;20187;-79
2022/03/19 01:20:34;;;;;;;9.90;7.55;;;;;;;0.12;60.94;96861.22;5054194;28;20250;-80
2022/03/19 01:23:02;;;;;;;11.80;7.40;;;;;;;0.11;61.18;96862.09;5054684;28;20202;-80
2022/03/19 01:25:31;;;;;;;10.20;6.63;;;;;;;0.02;60.49;96846.72;5053709;28;20218;-80
2022/03/19 01:27:58;;;;;;;11.27;7.03;;;;;;;0.04;60.62;96855.31;5053946;28;20206;-79
2022/03/19 01:30:26;;;;;;;9.85;6.88;;;;;;;-0.01;60.38;96848.44;5053893;28;20215;-79
2022/03/19 01:36:17;;;;;;;10.95;6.40;;;;;;;-0.05;59.98;96845.94;5052800;28;20584;-79
2022/03/19 01:38:44;;;;;;;12.15;6.95;;;;;;;-0.09;59.71;96850.28;5054601;28;20235;-79
2022/03/19 01:41:11;;;;;;;13.00;7.97;;;;;;;-0.12;59.52;96841.72;5053508;28;20187;-79
2022/03/19 01:43:38;;;;;;;10.02;6.47;;;;;;;-0.14;59.50;96839.16;5053760;28;20214;-80
2022/03/19 01:46:05;;;;;;;9.85;6.50;;;;;;;-0.15;59.59;96827.13;5053355;28;20226;-80
2022/03/19 01:48:32;;;;;;;7.68;5.97;;;;;;;-0.19;59.61;96845.25;5053342;28;20208;-79
2022/03/19 01:51:00;;;;;;;6.95;6.15;;;;;;;-0.26;59.56;96831.56;5053756;28;20196;-79
2022/03/19 01:53:31;;;;;;;10.02;6.40;;;;;;;-0.37;59.63;96830.81;5053848;28;20538;-80
2022/03/19 01:55:59;;;;;;;10.13;6.88;;;;;;;-0.38;60.34;96835.13;5053636;28;20629;-81
2022/03/19 01:58:26;;;;;;;10.65;6.97;;;;;;;-0.38;60.28;96837.69;5035174;28;20203;-79
2022/03/19 02:00:54;;;;;;;8.65;6.10;;;;;;;-0.45;60.54;96824.91;5053399;28;20187;-80
2022/03/19 02:03:22;;;;;;;9.13;5.80;;;;;;;-0.52;59.84;96833.59;5053216;28;20697;-79
2022/03/19 02:05:49;;;;;;;8.82;5.60;;;;;;;-0.55;59.93;96834.47;5053638;28;20303;-79
2022/03/19 02:08:19;;;;;;;9.60;6.72;;;;;;;-0.53;60.37;96834.44;5053732;28;20194;-79
2022/03/19 02:10:47;;;;;;;10.68;7.07;;;;;;;-0.53;59.92;96825.00;5053209;28;20249;-79
2022/03/19 02:13:14;;;;;;;12.52;6.53;;;;;;;-0.55;59.32;96826.72;5053093;28;20196;-79
2022/03/19 02:15:41;;;;;;;10.73;6.50;;;;;;;-0.62;59.07;96818.19;5018455;28;20197;-79
2022/03/19 02:18:09;;;;;;;9.88;6.18;;;;;;;-0.51;59.41;96824.97;5018254;28;20282;-80
2022/03/19 02:20:36;;;;;;;14.25;6.30;;;;;;;-0.45;58.70;96814.59;5053294;28;20239;-78
2022/03/19 02:33:10;;;;;;;9.13;5.47;;;;;;;-0.58;58.12;96816.41;5056170;28;20671;-79
2022/03/19 02:35:37;;;;;;;9.95;5.90;;;;;;;-0.63;58.68;96811.31;5056981;28;20195;-78
2022/03/19 02:38:04;;;;;;;6.25;5.63;;;;;;;-0.69;59.14;96819.13;5057449;28;20234;-79
2022/03/19 02:40:30;;;;;;;9.75;5.60;;;;;;;-0.72;59.49;96815.72;5039098;28;20211;-79
2022/03/19 02:42:58;;;;;;;7.30;6.45;;;;;;;-0.78;60.12;96826.09;5057581;28;20196;-80
2022/03/19 02:45:25;;;;;;;8.95;5.78;;;;;;;-0.76;60.00;96822.63;5057083;28;20191;-79
2022/03/19 02:47:58;;;;;;;9.35;6.13;;;;;;;-0.75;59.77;96823.50;5056612;28;20605;-80
2022/03/19 02:50:28;;;;;;;10.90;6.65;;;;;;;-0.76;59.59;96830.38;5057208;28;20558;-79
2022/03/19 02:52:56;;;;;;;12.57;7.93;;;;;;;-0.79;60.32;96834.69;5057058;28;20250;-77
2022/03/19 02:55:23;;;;;;;14.23;9.73;;;;;;;-1.41;63.69;96839.50;5056983;28;20183;-77
2022/03/19 02:57:50;;;;;;;18.42;12.70;;;;;;;-1.38;63.81;96839.47;5056727;28;20218;-80
2022/03/19 03:00:17;;;;;;;15.63;12.43;;;;;;;-1.22;63.68;96840.19;5056772;28;20206;-78
2022/03/19 03:02:44;;;;;;;21.80;9.57;;;;;;;-1.22;63.72;96841.91;5056927;28;20215;-79
2022/03/19 03:05:13;;;;;;;14.88;10.30;;;;;;;-1.14;64.11;96838.44;5056763;28;20191;-79
2022/03/19 03:07:41;;;;;;;15.15;11.02;;;;;;;-1.10;63.83;96834.13;5056531;28;20682;-79
2022/03/19 03:10:10;;;;;;;16.80;11.77;;;;;;;-1.08;63.14;96838.38;5057411;28;20197;-79
2022/03/19 03:12:37;;;;;;;15.13;10.43;;;;;;;-0.99;63.27;96840.03;5057145;28;20191;-77
2022/03/19 03:15:05;;;;;;;17.70;10.68;;;;;;;-0.87;63.38;96841.63;5057908;28;20561;-79
2022/03/19 03:17:34;;;;;;;22.45;12.05;;;;;;;-0.83;62.80;96838.19;5057617;28;20662;-80
2022/03/19 03:20:01;;;;;;;20.90;10.13;;;;;;;-0.82;62.73;96840.75;5057576;28;20196;-77
2022/03/19 03:22:29;;;;;;;14.48;10.60;;;;;;;-0.84;61.60;96845.06;5057327;28;20205;-79
2022/03/19 03:24:58;;;;;;;14.77;8.27;;;;;;;-0.85;61.25;96845.06;5057356;28;20658;-80
2022/03/19 03:27:25;;;;;;;10.20;7.57;;;;;;;-0.87;61.04;96833.91;5056703;28;20696;-79
2022/03/19 03:29:52;;;;;;;10.80;6.90;;;;;;;-0.86;61.28;96846.78;5038475;28;20195;-79
2022/03/19 03:35:40;;;;;;;9.43;7.13;;;;;;;-0.89;61.27;96844.22;5056016;28;20624;-79
2022/03/19 03:38:07;;;;;;;10.50;7.85;;;;;;;-0.90;61.36;96839.94;5056289;28;20231;-79
2022/03/19 03:40:36;;;;;;;9.48;6.78;;;;;;;-0.96;61.32;96846.00;5055543;28;20188;-80
2022/03/19 03:43:03;;;;;;;11.55;8.65;;;;;;;-0.98;61.05;96847.75;5055710;28;20670;-80
2022/03/19 03:45:30;;;;;;;15.10;7.85;;;;;;;-0.98;60.84;96852.03;5056178;28;20216;-79
2022/03/19 03:47:57;;;;;;;10.35;7.65;;;;;;;-1.05;61.43;96833.22;5055050;28;20227;-79
2022/03/19 03:50:24;;;;;;;8.60;7.65;;;;;;;-0.99;61.61;96838.31;5055795;28;20203;-80
2022/03/19 03:52:51;;;;;;;15.63;7.22;;;;;;;-0.98;61.15;96844.31;5055575;28;20236;-80
2022/03/19 03:55:18;;;;;;;10.55;7.60;;;;;;;-0.98;61.54;96840.00;5055068;28;20655;-80
2022/03/19 03:57:47;;;;;;;14.77;8.32;;;;;;;-0.97;60.93;96840.84;5055170;28;20201;-80
2022/03/19 04:00:15;;;;;;;10.75;8.45;;;;;;;-0.99;61.69;96842.59;5055184;28;20292;-79
2022/03/19 04:02:42;;;;;;;13.18;9.07;;;;;;;-1.04;61.26;96842.63;5054947;28;20295;-79
2022/03/19 04:05:10;;;;;;;14.70;8.75;;;;;;;-1.02;61.90;96850.34;5055189;28;20231;-80
2022/03/19 04:07:37;;;;;;;12.88;8.00;;;;;;;-1.02;61.54;96847.78;5054574;28;20224;-80
2022/03/19 04:10:05;;;;;;;12.52;7.32;;;;;;;-1.02;61.45;96838.31;5020081;28;20205;-81
2022/03/19 04:12:31;;;;;;;12.73;7.45;;;;;;;-0.99;61.85;96837.44;5036392;28;20207;-80
2022/03/19 04:15:00;;;;;;;11.35;7.85;;;;;;;-0.98;61.73;96837.44;5054959;28;20199;-80
2022/03/19 04:17:27;;;;;;;14.27;8.70;;;;;;;-1.00;61.70;96835.75;5054798;28;20561;-79
2022/03/19 04:19:53;;;;;;;13.38;8.52;;;;;;;-1.06;60.87;96834.06;5055161;28;20544;-79
2022/03/19 04:22:20;;;;;;;15.18;7.97;;;;;;;-1.07;61.16;96846.97;5055326;28;20188;-79
2022/03/19 04:24:47;;;;;;;12.80;7.60;;;;;;;-1.18;61.21;96833.31;5054985;28;20187;-79
2022/03/19 04:27:15;;;;;;;8.98;6.88;;;;;;;-1.11;61.19;96841.00;5054740;28;20278;-79
2022/03/19 04:39:48;;;;;;;7.32;6.30;;;;;;;-1.15;61.15;96841.03;5035723;28;20230;-79
2022/03/19 04:42:16;;;;;;;17.35;7.10;;;;;;;-1.20;60.87;96832.47;5054900;28;20559;-79
2022/03/19 04:44:43;;;;;;;7.63;6.80;;;;;;;-1.21;60.20;96836.75;5054840;28;20571;-79
2022/03/19 04:47:10;;;;;;;13.30;7.22;;;;;;;-1.26;60.02;96838.50;5054041;28;20570;-79
2022/03/19 04:49:36;;;;;;;11.75;5.90;;;;;;;-1.34;60.61;96838.59;5054501;28;20212;-78
2022/03/19 04:52:05;;;;;;;10.70;6.10;;;;;;;-1.47;61.31;96847.25;5054414;28;20221;-79
2022/03/19 04:54:32;;;;;;;13.50;8.05;;;;;;;-1.46;61.74;96840.38;5019941;28;20199;-79
2022/03/19 04:57:02;;;;;;;12.00;7.70;;;;;;;-1.45;61.56;96834.34;5036228;28;20240;-79
2022/03/19 04:59:29;;;;;;;7.43;6.50;;;;;;;-1.48;62.08;96840.38;5054575;28;20199;-79
2022/03/19 05:01:56;;;;;;;8.27;5.57;;;;;;;-1.37;62.06;96841.19;5054217;28;20634;-77
2022/03/19 05:04:23;;;;;;;7.90;6.20;;;;;;;-1.13;61.56;96842.72;5055400;28;20672;-80
2022/03/19 05:06:50;;;;;;;9.13;6.10;;;;;;;-0.76;60.41;96842.41;5054157;28;20223;-81
2022/03/19 05:12:05;;;;;;;10.35;7.00;;;;;;;0.09;57.45;96831.16;4993073;28;20199;-80
2022/03/19 05:14:32;;;;;;;13.75;7.03;;;;;;;0.42;56.66;96840.16;4992643;28;20205;-80
2022/03/19 05:16:59;;;;;;;10.95;7.10;;;;;;;0.76;55.99;96837.09;4992727;28;20201;-80
2022/03/19 05:19:26;;;;;;;14.90;7.50;;;;;;;1.04;55.20;96847.84;4993474;28;20192;-80
2022/03/19 05:21:53;;;;;;;10.00;7.18;;;;;;;1.27;54.13;96847.47;4960738;28;20665;-80
2022/03/19 05:24:20;;;;;;;20.48;10.68;;;;;;;0.84;55.87;96851.59;4992340;28;20210;-81
2022/03/19 05:26:47;;;;;;;21.13;10.82;;;;;;;0.86;56.08;96856.72;4992303;28;20215;-81
2022/03/19 05:29:15;;;;;;;26.88;15.93;;;;;;;1.18;55.76;96857.09;4992430;28;20198;-80
2022/03/19 05:35:04;;;;;;;18.95;11.05;;;;;;;1.93;54.01;96865.22;4991835;28;20737;-79
2022/03/19 05:37:32;;;;;;;17.23;10.43;;;;;;;2.30;52.15;96862.75;4992575;28;20189;-79
2022/03/19 05:40:00;;;;;;;15.43;11.30;;;;;;;2.42;51.66;96857.34;4992149;28;20623;-81
2022/03/19 05:42:28;;;;;;;16.95;11.80;;;;;;;2.73;51.06;96854.91;4992244;28;20472;-79
2022/03/19 05:44:56;;;;;;;19.50;12.27;;;;;;;2.51;50.85;96861.47;4992432;28;20209;-79
2022/03/19 05:47:23;;;;;;;23.77;11.70;;;;;;;2.58;50.06;96863.88;4960080;28;20499;-80
2022/03/19 06:00:04;;;;;;;15.30;11.40;;;;;;;4.23;46.81;96873.59;5033708;28;20964;-79
2022/03/19 06:02:31;;;;;;;14.50;10.60;;;;;;;4.20;45.98;96868.47;5033529;28;20488;-79
2022/03/19 06:04:58;;;;;;;13.47;10.53;;;;;;;4.23;45.16;96858.00;5033334;28;21000;-79
2022/03/19 06:07:25;;;;;;;14.40;9.17;;;;;;;4.22;45.59;96853.69;5033527;28;20476;-79
2022/03/19 06:09:52;;;;;;;19.37;9.80;;;;;;;4.55;44.62;96858.81;4999203;28;20438;-78
2022/03/19 06:12:19;;;;;;;14.00;9.90;;;;;;;4.87;44.55;96852.63;5034012;28;20469;-79
2022/03/19 06:14:46;;;;;;;15.20;11.03;;;;;;;5.20;43.45;96853.31;5034190;28;20453;-80
2022/03/19 06:17:14;;;;;;;17.47;10.43;;;;;;;5.57;43.79;96861.63;5033243;28;20446;-79
2022/03/19 06:19:41;;;;;;;16.33;9.53;;;;;;;5.72;42.02;96855.03;5034173;28;20791;-79
2022/03/19 06:22:08;;;;;;;15.90;10.07;;;;;;;5.79;40.45;96855.72;5032213;28;20451;-80
2022/03/19 06:24:35;;;;;;;10.50;8.87;;;;;;;5.85;40.71;96856.34;5032032;28;20447;-80
2022/03/19 06:27:03;;;;;;;12.27;9.90;;;;;;;6.22;39.53;96855.06;5031822;28;20485;-80
2022/03/19 06:29:30;;;;;;;18.97;11.37;;;;;;;6.43;38.73;96850.81;5031695;28;20772;-80
2022/03/19 06:31:58;;;;;;;13.30;10.20;;;;;;;6.03;39.21;96851.41;5032187;28;20477;-80
2022/03/19 06:34:29;;;;;;;12.07;10.87;;;;;;;5.99;39.84;96852.41;5031748;28;20447;-79
2022/03/19 06:39:40;;;;;;;17.43;12.57;;;;;;;5.72;40.87;96854.19;5032894;28;20470;-79
2022/03/19 06:42:07;;;;;;;19.27;13.53;;;;;;;5.51;41.32;96846.22;4998706;28;20871;-79
2022/03/19 06:44:34;;;;;;;21.90;13.60;;;;;;;5.37;41.18;96842.38;4998409;28;20437;-79
2022/03/19 06:47:01;;;;;;;12.50;9.70;;;;;;;5.36;41.66;96849.31;5032852;28;20492;-79
2022/03/19 06:49:29;;;;;;;14.77;9.60;;;;;;;5.69;41.53;96838.69;5033124;28;20443;-78
2022/03/19 06:51:56;;;;;;;16.93;9.90;;;;;;;6.21;40.43;96845.53;5033062;28;20438;-79
2022/03/19 06:54:23;;;;;;;16.57;10.50;;;;;;;6.75;40.18;96836.56;5032765;28;20470;-78
2022/03/19 06:56:52;;;;;;;20.50;12.93;;;;;;;7.27;38.60;96839.75;5032916;28;20435;-79
2022/03/19 06:59:19;;;;;;;14.37;9.73;;;;;;;7.55;37.06;96834.22;5032911;28;20454;-80
2022/03/19 07:01:46;;;;;;;12.10;8.43;;;;;;;7.82;36.95;96833.06;4998586;28;20439;-78
2022/03/19 07:04:13;;;;;;;11.27;7.80;;;;;;;7.94;36.61;96829.06;5033379;28;20460;-79
2022/03/19 07:06:41;;;;;;;12.77;8.17;;;;;;;8.20;36.88;96820.09;5032997;28;20903;-80
2022/03/19 07:09:08;;;;;;;19.03;9.13;;;;;;;8.29;35.89;96817.91;5033148;28;20478;-80
2022/03/19 07:11:36;;;;;;;9.57;7.20;;;;;;;8.28;34.59;96824.03;5037175;28;20442;-79
2022/03/19 07:14:04;;;;;;;8.33;7.50;;;;;;;8.48;35.24;96817.97;5036479;28;20925;-79
2022/03/19 07:16:31;;;;;;;10.83;9.20;;;;;;;8.44;34.72;96813.78;5036485;28;20458;-81
2022/03/19 07:18:59;;;;;;;9.40;7.93;;;;;;;8.51;35.17;96804.72;5036146;28;20458;-80
2022/03/19 07:21:25;;;;;;;11.30;9.27;;;;;;;7.89;34.92;96815.34;5036078;28;20441;-80
2022/03/19 07:23:54;;;;;;;10.30;8.50;;;;;;;7.70;36.29;96815.28;5036105;28;20427;-80
2022/03/19 07:26:21;;;;;;;11.60;8.70;;;;;;;7.90;36.28;96819.66;5035955;28;20441;-80
2022/03/19 07:28:47;;;;;;;19.60;12.43;;;;;;;7.60;36.19;96821.81;5035673;28;21015;-79
2022/03/19 07:31:16;;;;;;;16.90;10.30;;;;;;;7.34;36.07;96822.91;5036008;28;20434;-80
2022/03/19 07:33:42;;;;;;;24.13;14.97;;;;;;;7.15;37.47;96825.41;5035951;28;20519;-80
2022/03/19 07:36:09;;;;;;;20.43;14.70;;;;;;;6.69;38.70;96819.41;5035835;28;20451;-80
2022/03/19 07:38:36;;;;;;;20.20;13.00;;;;;;;6.76;38.65;96828.69;5035948;28;20446;-80
2022/03/19 07:43:49;;;;;;;22.23;15.03;;;;;;;6.32;38.73;96826.88;5035722;28;20438;-79
2022/03/19 07:46:16;;;;;;;17.37;13.57;;;;;;;6.36;39.29;96821.53;5035686;28;20439;-79
2022/03/19 07:48:43;;;;;;;19.77;12.37;;;;;;;6.23;39.28;96825.47;5017436;28;20481;-80
2022/03/19 07:51:10;;;;;;;17.93;12.53;;;;;;;6.15;42.73;96833.59;5035627;28;20450;-79
2022/03/19 07:53:37;;;;;;;15.73;12.20;;;;;;;6.15;42.05;96833.59;5033768;28;20501;-80
2022/03/19 07:56:06;;;;;;;17.37;11.40;;;;;;;5.82;42.86;96848.63;5036021;28;20435;-80
2022/03/19 07:58:33;;;;;;;18.80;12.73;;;;;;;5.17;44.11;96836.06;5043200;28;20793;-79
2022/03/19 08:01:00;;;;;;;20.00;13.37;;;;;;;4.89;45.30;96830.03;5055458;28;20426;-79
2022/03/19 08:03:27;;;;;;;20.20;14.27;;;;;;;5.26;44.51;96835.78;5020568;28;20442;-79
2022/03/19 08:05:55;;;;;;;24.30;13.57;;;;;;;5.70;44.44;96838.63;5055685;28;20437;-79
2022/03/19 08:08:21;;;;;;;25.57;13.53;;;;;;;5.92;43.10;96836.16;5036984;28;20847;-79
2022/03/19 08:10:48;;;;;;;24.77;15.13;;;;;;;6.16;42.80;96837.91;5055279;28;20434;-80
2022/03/19 08:13:18;;;;;;;22.27;14.33;;;;;;;6.09;43.10;96822.53;5055232;28;20445;-79
2022/03/19 08:15:45;;;;;;;24.60;16.03;;;;;;;6.07;42.98;96830.41;5055457;28;20446;-81
2022/03/19 08:18:13;;;;;;;21.60;12.73;;;;;;;6.03;43.01;96834.00;5055186;28;20434;-79
2022/03/19 08:20:40;;;;;;;20.93;13.60;;;;;;;6.35;42.64;96830.22;5054740;28;20441;-79
2022/03/19 08:23:07;;;;;;;18.43;13.60;;;;;;;6.27;41.64;96824.47;5055342;28;20430;-78
2022/03/19 08:25:35;;;;;;;21.13;13.57;;;;;;;6.50;40.52;96823.59;5020769;28;20446;-80
2022/03/19 08:28:02;;;;;;;21.40;14.40;;;;;;;6.61;40.36;96817.97;5020837;28;20796;-79
2022/03/19 08:30:30;;;;;;;26.70;14.43;;;;;;;6.81;40.63;96816.31;5055328;28;20438;-79
2022/03/19 08:32:57;;;;;;;25.17;16.10;;;;;;;6.79;41.11;96814.66;5055125;28;20434;-79
2022/03/19 08:35:24;;;;;;;24.93;14.77;;;;;;;6.35;40.33;96818.94;5054686;28;20430;-79
2022/03/19 08:40:15;;;;;;;19.13;13.27;;;;;;;6.10;39.41;96819.03;5036970;28;20439;-78
2022/03/19 08:40:37;;;;;;;16.50;11.93;;;;;;;6.64;38.71;96810.03;5055139;28;20479;-78
2022/03/19 08:43:04;;;;;;;20.87;13.13;;;;;;;6.94;37.70;96815.81;5054901;28;20759;-78
2022/03/19 08:45:33;;;;;;;16.30;12.37;;;;;;;6.87;36.41;96823.03;5054656;28;20673;-79
2022/03/19 08:48:00;;;;;;;23.20;13.33;;;;;;;6.64;36.70;96815.25;5054705;28;20469;-79
2022/03/19 08:50:28;;;;;;;22.03;12.73;;;;;;;6.30;36.98;96813.06;5019783;28;20437;-78
2022/03/19 08:52:55;;;;;;;17.90;11.13;;;;;;;6.17;38.04;96813.53;5054435;28;20426;-79
2022/03/19 08:55:22;;;;;;;17.67;12.50;;;;;;;5.98;37.44;96809.88;5054201;28;20449;-80
2022/03/19 08:57:49;;;;;;;18.77;13.33;;;;;;;5.99;37.14;96795.09;5054215;28;20915;-80
2022/03/19 09:00:16;;;;;;;15.07;11.00;;;;;;;5.90;37.11;96799.75;5054579;28;20948;-79
2022/03/19 09:02:45;;;;;;;16.33;11.00;;;;;;;5.84;37.20;96809.50;5054061;28;20444;-80
2022/03/19 09:05:12;;;;;;;16.70;10.60;;;;;;;5.53;37.66;96805.38;5054091;28;20450;-80
2022/03/19 09:07:39;;;;;;;14.17;9.63;;;;;;;5.33;37.79;96801.72;5053363;28;20819;-81
2022/03/19 09:10:07;;;;;;;15.77;9.77;;;;;;;5.33;38.70;96801.72;5017766;28;20449;-81
2022/03/19 09:12:34;;;;;;;18.73;11.07;;;;;;;5.09;38.33;96805.97;5018487;28;20909;-79
2022/03/19 09:15:01;;;;;;;15.97;10.80;;;;;;;5.33;37.95;96799.97;5017915;28;20927;-80
2022/03/19 09:17:28;;;;;;;16.10;11.43;;;;;;;5.38;37.68;96800.66;5053019;28;20504;-79
2022/03/19 09:19:56;;;;;;;13.40;11.20;;;;;;;5.50;38.36;96802.03;5052903;28;20445;-80
2022/03/19 09:22:23;;;;;;;13.43;10.00;;;;;;;5.62;37.33;96803.34;5053032;28;20446;-80
2022/03/19 09:24:50;;;;;;;16.43;10.30;;;;;;;5.59;36.59;96802.53;5052786;28;20446;-80
2022/03/19 09:27:17;;;;;;;19.47;10.60;;;;;;;5.53;37.05;96794.94;5052720;28;20449;-79
2022/03/19 09:29:44;;;;;;;19.40;11.90;;;;;;;5.55;36.78;96794.91;5052712;28;20482;-79
2022/03/19 09:32:12;;;;;;;15.73;11.37;;;;;;;5.53;36.66;96796.69;5052355;28;20452;-80
2022/03/19 09:34:39;;;;;;;12.80;9.27;;;;;;;5.23;37.39;96794.22;5052760;28;20467;-80
2022/03/19 09:37:08;;;;;;;14.20;10.00;;;;;;;5.15;37.32;96797.97;5052934;28;20457;-80
2022/03/19 09:39:35;;;;;;;19.13;9.90;;;;;;;5.00;36.93;96793.28;5052543;28;20603;-81
2022/03/19 09:42:02;;;;;;;18.33;11.87;;;;;;;4.79;38.22;96792.22;5052725;28;21052;-78
2022/03/19 09:44:29;;;;;;;26.30;11.30;;;;;;;4.77;37.97;96794.00;5052562;28;20499;-78
2022/03/19 09:46:56;;;;;;;19.43;11.23;;;;;;;4.72;39.03;96790.72;5017727;28;20440;-80
2022/03/19 09:49:23;;;;;;;17.50;11.37;;;;;;;4.28;39.68;96785.94;5052516;28;20512;-79
2022/03/19 09:51:54;;;;;;;26.70;9.90;;;;;;;4.50;38.60;96791.34;5052240;28;20457;-79
2022/03/19 09:54:23;;;;;;;23.13;10.10;;;;;;;4.35;39.49;96790.09;5052559;28;20538;-79
2022/03/19 09:56:50;;;;;;;18.50;10.83;;;;;;;4.11;41.01;96782.16;5052487;28;20487;-80
2022/03/19 09:59:18;;;;;;;20.20;12.50;;;;;;;4.14;41.36;96792.47;5052181;28;20533;-80
2022/03/19 10:01:47;;;;;;;16.43;11.03;;;;;;;4.11;41.16;96783.00;5052145;28;20468;-80
2022/03/19 10:04:17;;;;;;;16.40;10.70;;;;;;;4.16;41.41;96788.06;5052525;28;20457;-80
2022/03/19 10:09:45;;;;;;;14.73;10.10;;;;;;;4.63;39.27;96784.06;5052281;28;20504;-80
2022/03/19 10:12:15;;;;;;;13.97;8.80;;;;;;;4.52;39.08;96775.72;5052178;28;20939;-79
2022/03/19 10:14:42;;;;;;;15.37;11.03;;;;;;;4.91;40.51;96790.06;5052009;28;20844;-80
2022/03/19 10:17:09;;;;;;;9.00;6.70;;;;;;;4.58;39.46;96768.56;5052039;28;20454;-80
2022/03/19 10:19:50;;;;;;;14.77;10.60;;;;;;;5.03;41.18;96785.38;5051994;28;20537;-79
2022/03/19 10:22:24;;;;;;;16.43;10.40;;;;;;;4.82;39.05;96772.16;5052221;28;20522;-80
2022/03/19 10:24:58;;;;;;;22.10;9.90;;;;;;;4.70;38.93;96771.69;5052469;28;20433;-80
2022/03/19 10:27:26;;;;;;;38.47;17.50;;;;;;;4.58;38.92;96772.91;5051962;28;20456;-79
2022/03/19 10:30:07;;;;;;;16.43;11.07;;;;;;;4.72;39.80;96773.34;5052189;28;20489;-80
2022/03/19 10:32:34;;;;;;;14.70;9.60;;;;;;;4.74;37.96;96768.94;5052141;28;20787;-81
2022/03/19 10:35:02;;;;;;;12.87;8.43;;;;;;;4.20;38.72;96766.28;5052136;28;20845;-80
2022/03/19 10:37:37;;;;;;;14.00;9.10;;;;;;;4.23;39.45;96774.00;5052184;28;20803;-80
2022/03/19 10:40:08;;;;;;;14.13;9.50;;;;;;;4.34;39.73;96774.53;5017293;28;20477;-79
2022/03/19 10:42:40;;;;;;;12.60;8.83;;;;;;;4.20;40.28;96781.88;5052138;28;20429;-80
2022/03/19 10:45:09;;;;;;;20.30;9.57;;;;;;;3.90;41.46;96773.22;5054926;28;20812;-80
2022/03/19 10:47:43;;;;;;;15.90;10.07;;;;;;;3.60;40.73;96767.16;5056111;28;20726;-80
2022/03/19 10:50:11;;;;;;;17.33;10.17;;;;;;;3.51;40.85;96778.63;5055555;28;20488;-80
2022/03/19 10:52:38;;;;;;;14.30;9.30;;;;;;;3.66;41.41;96775.59;5020553;28;20456;-80
2022/03/19 10:55:08;;;;;;;12.07;9.27;;;;;;;3.70;41.11;96773.78;5021914;28;20453;-80
2022/03/19 10:57:36;;;;;;;12.57;8.93;;;;;;;3.88;40.45;96762.03;5055747;28;20448;-83
2022/03/19 11:00:06;;;;;;;16.47;8.80;;;;;;;3.96;41.07;96780.84;5055663;28;20928;-80
2022/03/19 11:02:34;;;;;;;15.00;9.60;;;;;;;3.93;40.44;96763.59;5055441;28;20483;-80
2022/03/19 11:05:02;;;;;;;10.70;7.33;;;;;;;4.14;40.79;96756.94;5055174;28;20940;-81
2022/03/19 11:07:34;;;;;;;19.77;11.13;;;;;;;4.09;40.83;96766.63;5055928;28;20460;-80
2022/03/19 11:10:05;;;;;;;17.70;10.90;;;;;;;4.03;40.75;96764.19;5055175;28;20485;-82
2022/03/19 11:12:35;;;;;;;14.73;12.07;;;;;;;4.01;41.05;96771.16;5055274;28;20445;-80
2022/03/19 11:15:05;;;;;;;19.80;11.57;;;;;;;3.89;42.42;96766.34;5055178;28;20937;-80
2022/03/19 11:17:33;;;;;;;16.30;10.70;;;;;;;3.80;41.94;96766.59;5020522;28;20437;-81
2022/03/19 11:20:04;;;;;;;19.57;11.60;;;;;;;3.85;42.96;96755.19;5055069;28;20505;-80
2022/03/19 11:22:39;;;;;;;16.70;11.20;;;;;;;3.92;43.36;96751.50;5055292;28;20452;-81
2022/03/19 11:25:12;;;;;;;15.07;10.30;;;;;;;4.16;41.90;96749.94;5055123;28;20456;-81
2022/03/19 11:27:44;;;;;;;18.43;11.80;;;;;;;4.35;42.07;96750.25;5054971;28;20438;-80
2022/03/19 11:30:23;;;;;;;17.10;8.80;;;;;;;4.51;41.34;96745.41;5055077;28;20481;-81
2022/03/19 11:33:09;;;;;;;13.80;8.60;;;;;;;4.70;41.47;96741.34;5055271;28;20445;-79
2022/03/19 11:35:38;;;;;;;18.20;10.50;;;;;;;4.78;41.03;96738.50;5055091;28;20563;-79
2022/03/19 11:38:11;;;;;;;16.43;10.97;;;;;;;4.84;42.21;96743.50;5054930;28;20453;-79
2022/03/19 11:40:42;;;;;;;24.73;12.43;;;;;;;4.62;42.21;96728.56;5055139;28;20477;-79
2022/03/19 11:43:11;;;;;;;13.37;10.37;;;;;;;4.35;41.21;96722.53;5055007;28;20488;-79
2022/03/19 11:45:40;;;;;;;19.70;11.83;;;;;;;4.08;42.68;96725.09;5054807;28;20923;-80
2022/03/19 11:48:46;;;;;;;14.00;9.37;;;;;;;4.35;42.66;96726.88;5054953;28;20457;-80
2022/03/19 11:51:31;;;;;;;13.97;9.93;;;;;;;4.20;41.92;96709.13;5063678;28;20457;-81
2022/03/19 11:54:00;;;;;;;11.80;8.37;;;;;;;3.99;42.35;96724.47;5056385;28;20442;-81
2022/03/19 11:56:29;;;;;;;15.40;10.40;;;;;;;4.29;43.65;96724.44;5053858;28;20442;-81
2022/03/19 11:58:57;;;;;;;14.10;9.93;;;;;;;4.34;42.26;96710.44;5054346;28;20472;-81
2022/03/19 12:01:48;;;;;;;14.53;9.77;;;;;;;4.58;41.98;96719.19;5054247;28;20932;-80
2022/03/19 12:04:16;;;;;;;15.80;10.57;;;;;;;4.42;42.17;96724.94;5054843;28;20990;-81
2022/03/19 12:06:51;;;;;;;15.77;9.70;;;;;;;4.11;40.61;96719.81;5019138;28;20450;-81
2022/03/19 12:09:18;;;;;;;18.13;10.53;;;;;;;3.96;42.23;96711.56;5054125;28;20484;-81
2022/03/19 12:12:07;;;;;;;13.40;9.60;;;;;;;3.68;42.23;96711.53;5054075;28;20860;-79
2022/03/19 12:14:36;;;;;;;24.87;14.10;;;;;;;3.79;43.77;96703.44;5053966;28;20445;-81
2022/03/19 12:17:17;;;;;;;11.10;8.73;;;;;;;3.78;42.68;96708.69;5054195;28;20476;-80
2022/03/19 12:19:54;;;;;;;9.27;6.60;;;;;;;3.51;41.46;96708.56;5054182;28;20445;-80
2022/03/19 12:22:28;;;;;;;10.50;8.17;;;;;;;3.62;41.57;96696.13;5054205;28;20862;-80
2022/03/19 12:25:06;;;;;;;13.03;9.10;;;;;;;3.80;40.38;96696.50;5053953;28;20481;-79
2022/03/19 12:27:33;;;;;;;11.20;8.77;;;;;;;4.25;41.83;96702.91;5053783;28;20467;-79
2022/03/19 12:30:02;;;;;;;20.57;14.03;;;;;;;4.20;40.66;96699.59;5053831;28;20473;-81
2022/03/19 12:32:29;;;;;;;15.57;8.90;;;;;;;3.95;41.51;96709.03;5054037;28;20460;-80
2022/03/19 12:35:00;;;;;;;14.50;8.53;;;;;;;3.78;40.98;96700.88;5054226;28;20454;-81
2022/03/19 12:37:26;;;;;;;13.77;9.23;;;;;;;3.87;42.00;96691.06;5053779;28;20456;-79
2022/03/19 12:40:00;;;;;;;35.90;19.07;;;;;;;3.96;41.85;96703.78;5053175;28;20473;-79